Time;durP1;ratioP1;P1;durP2;ratioP2;P2;SDS_P1;SDS_P2;PMS_P1;PMS_P2;Temp;Humidity;BMP_temperature;BMP_pressure;BME280_temperature;BME280_humidity;BME280_pressure;Samples;Min_cycle;Max_cycle;Signal;HPM_P1;HPM_P2
2023/01/15 00:00:51;;;;;;;0.10;0.10;;;7.90;99.90;;;;;;4882329;29;20489;-90
2023/01/15 00:03:20;;;;;;;0.10;0.10;;;8.00;99.90;;;;;;4881983;29;20040;-91
2023/01/15 00:05:52;;;;;;;0.10;0.10;;;7.80;99.90;;;;;;4897427;29;20402;-91
2023/01/15 00:08:20;;;;;;;0.10;0.10;;;7.60;99.90;;;;;;4883167;29;20033;-94
2023/01/15 00:10:46;;;;;;;0.10;0.10;;;;;;;;;;4884700;29;20123;-94
2023/01/15 00:13:12;;;;;;;0.10;0.10;;;;;;;;;;4880118;29;20109;-89
2023/01/15 00:15:38;;;;;;;0.10;0.10;;;;;;;;;;4888647;29;20036;-90
2023/01/15 00:18:04;;;;;;;0.10;0.10;;;7.60;99.90;;;;;;4878878;29;20408;-91
2023/01/15 00:20:29;;;;;;;0.10;0.10;;;7.70;99.90;;;;;;4883568;29;20499;-91
2023/01/15 00:22:55;;;;;;;0.10;0.10;;;7.40;99.90;;;;;;4888385;29;20037;-89
2023/01/15 00:28:05;;;;;;;0.10;0.10;;;7.50;99.90;;;;;;4895225;29;20460;-89
2023/01/15 00:30:30;;;;;;;0.10;0.10;;;7.50;99.90;;;;;;4879459;29;20072;-91
2023/01/15 00:32:57;;;;;;;0.10;0.10;;;8.20;99.90;;;;;;4880964;29;20020;-89
2023/01/15 00:35:23;;;;;;;0.10;0.10;;;8.30;99.90;;;;;;4881013;29;20048;-90
2023/01/15 00:37:49;;;;;;;0.10;0.10;;;7.80;99.90;;;;;;4882596;29;20057;-88
2023/01/15 00:40:17;;;;;;;0.10;0.10;;;7.20;99.90;;;;;;4880018;29;20072;-90
2023/01/15 00:42:43;;;;;;;0.10;0.10;;;;;;;;;;4882434;29;20029;-89
2023/01/15 00:45:10;;;;;;;0.10;0.10;;;7.10;99.90;;;;;;4878222;29;20115;-90
2023/01/15 00:47:37;;;;;;;0.10;0.10;;;7.10;99.90;;;;;;4876755;29;20032;-90
2023/01/15 00:50:04;;;;;;;0.10;0.10;;;7.10;99.90;;;;;;4880698;29;20025;-90
2023/01/15 00:52:30;;;;;;;0.10;0.10;;;7.10;99.90;;;;;;4880596;29;20128;-91
2023/01/15 00:54:56;;;;;;;0.10;0.10;;;7.10;99.90;;;;;;4882001;29;20036;-92
2023/01/15 00:57:22;;;;;;;0.10;0.10;;;7.00;99.90;;;;;;4878095;29;20042;-92
2023/01/15 00:59:47;;;;;;;0.10;0.10;;;6.60;99.90;;;;;;4888367;29;20080;-91
2023/01/15 01:02:13;;;;;;;0.10;0.10;;;;;;;;;;4882051;29;20033;-91
2023/01/15 01:04:39;;;;;;;0.10;0.10;;;;;;;;;;4881919;29;20551;-91
2023/01/15 01:07:05;;;;;;;0.10;0.10;;;6.80;99.90;;;;;;4875443;29;20040;-91
2023/01/15 01:09:30;;;;;;;0.10;0.10;;;6.80;99.90;;;;;;4880698;29;20039;-90
2023/01/15 01:11:56;;;;;;;0.10;0.10;;;6.80;99.90;;;;;;4879925;29;20025;-90
2023/01/15 01:14:21;;;;;;;0.10;0.10;;;6.70;99.90;;;;;;4874178;29;20024;-90
2023/01/15 01:16:47;;;;;;;0.10;0.10;;;;;;;;;;4881338;29;20041;-91
2023/01/15 01:19:18;;;;;;;0.10;0.10;;;6.50;99.90;;;;;;4898431;29;20083;-91
2023/01/15 01:21:45;;;;;;;0.10;0.10;;;6.60;99.90;;;;;;4886632;29;20028;-92
2023/01/15 01:24:13;;;;;;;0.10;0.10;;;7.10;99.90;;;;;;4890140;29;20043;-90
2023/01/15 01:26:39;;;;;;;0.10;0.10;;;6.40;99.90;;;;;;4885264;29;20281;-91
2023/01/15 01:29:05;;;;;;;0.10;0.10;;;6.40;99.90;;;;;;4885166;29;20056;-91
2023/01/15 01:31:31;;;;;;;0.10;0.10;;;6.70;99.90;;;;;;4884840;29;20111;-92
2023/01/15 01:33:57;;;;;;;0.10;0.10;;;6.30;99.90;;;;;;4873594;29;20119;-92
2023/01/15 01:36:32;;;;;;;0.10;0.10;;;6.30;99.90;;;;;;4880300;29;20037;-93
2023/01/15 01:38:58;;;;;;;0.10;0.10;;;6.30;99.90;;;;;;4895530;29;20044;-93
2023/01/15 01:41:26;;;;;;;0.10;0.10;;;6.20;99.90;;;;;;4880220;29;20063;-91
2023/01/15 01:44:01;;;;;;;0.10;0.10;;;6.30;99.90;;;;;;4884619;29;20033;-92
2023/01/15 01:46:29;;;;;;;0.10;0.10;;;6.30;99.90;;;;;;4895537;29;20160;-92
2023/01/15 01:49:01;;;;;;;0.10;0.10;;;6.30;99.90;;;;;;4874083;29;20037;-92
2023/01/15 01:51:35;;;;;;;0.10;0.10;;;6.30;99.90;;;;;;4881616;29;20040;-92
2023/01/15 01:54:02;;;;;;;0.10;0.10;;;7.10;99.90;;;;;;4874625;29;20090;-91
2023/01/15 01:56:29;;;;;;;0.10;0.10;;;6.30;99.90;;;;;;4881903;29;20036;-91
2023/01/15 01:58:55;;;;;;;0.10;0.10;;;8.10;99.90;;;;;;4884703;29;20036;-92
2023/01/15 02:01:24;;;;;;;0.10;0.10;;;6.30;99.90;;;;;;4884088;29;20071;-92
2023/01/15 02:03:51;;;;;;;0.10;0.10;;;;;;;;;;4920277;23;20044;-88
2023/01/15 02:06:17;;;;;;;0.10;0.10;;;;;;;;;;4878431;29;20080;-89
2023/01/15 02:08:43;;;;;;;0.10;0.10;;;;;;;;;;4874001;29;20033;-89
2023/01/15 02:11:16;;;;;;;0.10;0.10;;;6.30;99.90;;;;;;4883816;29;20036;-89
2023/01/15 02:14:21;;;;;;;0.10;0.10;;;6.20;99.90;;;;;;4888838;29;20029;-89
2023/01/15 02:17:00;;;;;;;0.10;0.10;;;6.20;99.90;;;;;;4822244;29;20038;-89
2023/01/15 02:20:10;;;;;;;0.10;0.10;;;6.30;99.90;;;;;;4883197;29;20510;-89
2023/01/15 02:22:55;;;;;;;0.10;0.10;;;6.30;99.90;;;;;;4820944;29;20299;-90
2023/01/15 02:25:54;;;;;;;0.08;0.08;;;6.20;99.90;;;;;;4884608;29;20033;-89
2023/01/15 02:28:38;;;;;;;0.10;0.10;;;6.30;99.90;;;;;;4890283;29;20072;-89
2023/01/15 02:31:25;;;;;;;0.10;0.10;;;6.30;99.90;;;;;;4891088;29;20564;-88
2023/01/15 02:33:58;;;;;;;0.10;0.10;;;6.40;99.90;;;;;;4882121;29;20049;-89
2023/01/15 02:36:27;;;;;;;0.10;0.10;;;6.30;99.90;;;;;;4891186;29;20029;-90
2023/01/15 02:38:56;;;;;;;0.00;0.00;;;6.40;99.90;;;;;;4894209;29;20060;-90
2023/01/15 02:41:27;;;;;;;0.10;0.10;;;6.40;99.90;;;;;;4893425;29;20036;-89
2023/01/15 02:43:55;;;;;;;0.10;0.10;;;6.40;99.90;;;;;;4894221;29;20039;-89
2023/01/15 02:46:26;;;;;;;0.10;0.10;;;6.40;99.90;;;;;;4889908;29;20040;-90
2023/01/15 02:48:54;;;;;;;0.10;0.10;;;6.50;99.90;;;;;;4894015;29;20088;-89
2023/01/15 02:51:24;;;;;;;0.10;0.10;;;6.50;99.90;;;;;;4894103;29;20036;-90
2023/01/15 02:53:52;;;;;;;;;;;9.00;99.90;;;;;;4893526;29;21966;-90
2023/01/15 02:56:22;;;;;;;0.10;0.10;;;6.40;99.90;;;;;;4888594;29;19912;-90
2023/01/15 02:58:52;;;;;;;0.10;0.10;;;6.40;99.90;;;;;;4892089;29;20059;-89
2023/01/15 03:01:24;;;;;;;0.17;0.17;;;6.50;99.90;;;;;;4890358;29;20268;-91
2023/01/15 03:04:06;;;;;;;0.10;0.10;;;5.60;99.90;;;;;;4891949;29;20047;-90
2023/01/15 03:06:44;;;;;;;0.10;0.10;;;6.40;99.90;;;;;;4887689;29;20029;-90
2023/01/15 03:09:12;;;;;;;0.10;0.10;;;6.50;99.90;;;;;;4891448;29;20033;-90
2023/01/15 03:11:45;;;;;;;0.10;0.10;;;6.40;99.90;;;;;;4892051;29;20513;-90
2023/01/15 03:14:19;;;;;;;0.10;0.10;;;6.40;99.90;;;;;;4894274;29;20039;-89
2023/01/15 03:16:49;;;;;;;0.10;0.10;;;6.40;99.90;;;;;;4891969;29;20032;-89
2023/01/15 03:19:30;;;;;;;0.10;0.10;;;7.20;99.90;;;;;;4891497;29;20044;-89
2023/01/15 03:21:56;;;;;;;0.10;0.10;;;;;;;;;;4906060;29;20037;-90
2023/01/15 03:24:32;;;;;;;0.10;0.10;;;6.50;99.90;;;;;;4891207;29;20394;-90
2023/01/15 03:26:58;;;;;;;0.10;0.10;;;;;;;;;;4889541;29;20040;-89
2023/01/15 03:29:29;;;;;;;0.10;0.10;;;6.50;99.90;;;;;;4892941;29;20084;-91
2023/01/15 03:31:55;;;;;;;0.10;0.10;;;;;;;;;;4899885;29;20035;-90
2023/01/15 03:34:21;;;;;;;0.10;0.10;;;;;;;;;;4895646;29;20029;-90
2023/01/15 03:36:47;;;;;;;0.10;0.10;;;;;;;;;;4893673;29;20071;-89
2023/01/15 03:39:13;;;;;;;0.10;0.10;;;;;;;;;;4893957;29;20091;-89
2023/01/15 03:41:53;;;;;;;0.10;0.10;;;6.50;99.90;;;;;;4894984;29;20119;-89
2023/01/15 03:44:31;;;;;;;0.10;0.10;;;6.40;99.90;;;;;;4890856;29;20145;-89
2023/01/15 03:46:58;;;;;;;0.10;0.10;;;;;;;;;;4895489;29;20041;-89
2023/01/15 03:49:49;;;;;;;0.10;0.10;;;6.40;99.90;;;;;;4891446;29;20060;-89
2023/01/15 03:52:23;;;;;;;0.10;0.10;;;6.50;99.90;;;;;;4893193;29;20037;-89
2023/01/15 03:55:10;;;;;;;0.10;0.10;;;5.80;99.90;;;;;;4893393;29;20570;-89
2023/01/15 03:57:38;;;;;;;0.10;0.10;;;6.50;99.90;;;;;;4894479;29;20086;-89
2023/01/15 04:00:13;;;;;;;0.10;0.10;;;6.40;99.90;;;;;;4895548;29;20398;-90
2023/01/15 04:02:40;;;;;;;0.10;0.10;;;6.40;99.90;;;;;;4892540;29;20032;-89
2023/01/15 04:05:06;;;;;;;0.10;0.10;;;;;;;;;;4893568;29;20079;-90
2023/01/15 04:07:32;;;;;;;0.10;0.10;;;;;;;;;;4884602;29;20025;-89
2023/01/15 04:09:58;;;;;;;0.10;0.10;;;;;;;;;;4892452;29;20029;-89
2023/01/15 04:12:26;;;;;;;0.10;0.10;;;;;;;;;;4891722;29;20032;-89
2023/01/15 04:14:52;;;;;;;0.08;0.08;;;;;;;;;;4893062;29;20544;-89
2023/01/15 04:17:18;;;;;;;0.10;0.10;;;;;;;;;;4893671;29;20136;-90
2023/01/15 04:19:44;;;;;;;0.10;0.10;;;;;;;;;;4892339;29;20080;-88
2023/01/15 04:22:10;;;;;;;0.10;0.10;;;6.40;99.90;;;;;;4886516;29;20037;-89
2023/01/15 04:24:36;;;;;;;0.10;0.10;;;;;;;;;;4892296;29;20048;-92
2023/01/15 04:27:02;;;;;;;0.10;0.10;;;;;;;;;;4890950;29;20040;-89
2023/01/15 04:29:28;;;;;;;0.10;0.10;;;;;;;;;;4889015;29;20029;-89
2023/01/15 04:31:56;;;;;;;0.10;0.10;;;;;;;;;;4904425;29;20037;-93
2023/01/15 04:34:24;;;;;;;0.10;0.10;;;6.50;99.90;;;;;;4916872;29;20020;-91
2023/01/15 04:36:50;;;;;;;0.10;0.10;;;;;;;;;;4902892;29;20115;-89
2023/01/15 04:39:16;;;;;;;0.10;0.10;;;;;;;;;;4894172;29;20486;-88
2023/01/15 04:44:28;;;;;;;0.10;0.10;;;;;;;;;;4894285;29;20103;-90
2023/01/15 04:46:54;;;;;;;0.10;0.10;;;6.40;99.90;;;;;;4897254;29;20044;-90
2023/01/15 04:49:20;;;;;;;0.10;0.10;;;;;;;;;;4887925;29;20033;-89
2023/01/15 04:51:46;;;;;;;0.10;0.10;;;;;;;;;;4894583;29;20540;-89
2023/01/15 04:54:13;;;;;;;0.10;0.10;;;6.40;99.90;;;;;;4894594;29;20029;-88
2023/01/15 04:56:41;;;;;;;0.10;0.10;;;6.50;99.90;;;;;;4890913;29;20111;-89
2023/01/15 04:59:07;;;;;;;0.10;0.10;;;;;;;;;;4891229;29;20033;-90
2023/01/15 05:01:34;;;;;;;0.10;0.10;;;;;;;;;;4891827;29;20497;-90
2023/01/15 05:04:00;;;;;;;0.10;0.10;;;;;;;;;;4893712;29;20080;-89
2023/01/15 05:06:26;;;;;;;0.10;0.10;;;;;;;;;;4906528;29;20533;-90
2023/01/15 05:08:52;;;;;;;0.10;0.10;;;;;;;;;;4892423;29;20398;-89
2023/01/15 05:11:18;;;;;;;0.10;0.10;;;6.50;99.90;;;;;;4889165;29;20065;-91
2023/01/15 05:13:44;;;;;;;0.10;0.10;;;;;;;;;;4893374;29;20123;-89
2023/01/15 05:16:15;;;;;;;0.17;0.17;;;6.60;99.90;;;;;;4893988;29;20048;-89
2023/01/15 05:18:42;;;;;;;0.17;0.17;;;6.60;99.90;;;;;;4889469;29;20061;-89
2023/01/15 05:21:18;;;;;;;0.10;0.10;;;6.60;99.90;;;;;;4889450;29;20052;-91
2023/01/15 05:23:44;;;;;;;0.10;0.10;;;;;;;;;;4888187;29;21811;-88
2023/01/15 05:26:10;;;;;;;0.10;0.10;;;;;;;;;;4894235;29;20087;-87
2023/01/15 05:28:36;;;;;;;0.10;0.10;;;;;;;;;;4893176;29;20484;-88
2023/01/15 05:31:07;;;;;;;0.10;0.10;;;6.60;99.90;;;;;;4891321;29;20037;-90
2023/01/15 05:33:32;;;;;;;0.15;0.15;;;;;;;;;;4891714;29;20486;-90
2023/01/15 05:36:08;;;;;;;0.10;0.10;;;6.50;99.90;;;;;;4896807;29;20060;-89
2023/01/15 05:38:34;;;;;;;0.10;0.10;;;;;;;;;;4890041;29;20033;-89
2023/01/15 05:43:51;;;;;;;0.10;0.10;;;;;;;;;;4892486;29;20068;-89
2023/01/15 05:46:17;;;;;;;0.10;0.10;;;;;;;;;;4888605;29;20493;-89
2023/01/15 05:48:43;;;;;;;0.10;0.10;;;;;;;;;;4893610;29;20024;-89
2023/01/15 05:51:09;;;;;;;0.10;0.10;;;;;;;;;;4893652;29;20553;-89
2023/01/15 05:53:35;;;;;;;0.10;0.10;;;;;;;;;;4891639;29;20534;-89
2023/01/15 05:56:01;;;;;;;0.10;0.10;;;;;;;;;;4891173;29;20036;-89
2023/01/15 05:58:27;;;;;;;0.10;0.10;;;;;;;;;;4894302;29;20042;-89
2023/01/15 06:00:53;;;;;;;0.10;0.10;;;;;;;;;;4896509;29;20036;-89
2023/01/15 06:03:21;;;;;;;0.10;0.10;;;6.60;99.90;;;;;;4891326;29;20136;-90
2023/01/15 06:05:51;;;;;;;0.10;0.10;;;6.60;99.90;;;;;;4896847;29;20052;-89
2023/01/15 06:08:17;;;;;;;0.03;0.03;;;;;;;;;;4893654;29;20052;-89
2023/01/15 06:10:46;;;;;;;0.10;0.10;;;6.50;99.90;;;;;;4895529;29;20071;-90
2023/01/15 06:13:13;;;;;;;0.10;0.10;;;6.50;99.90;;;;;;4891348;29;20057;-88
2023/01/15 06:15:39;;;;;;;0.10;0.10;;;;;;;;;;4892652;29;20037;-89
2023/01/15 06:18:05;;;;;;;0.10;0.10;;;6.50;99.90;;;;;;4897361;29;20401;-90
2023/01/15 06:20:31;;;;;;;0.10;0.10;;;;;;;;;;4895787;29;20036;-90
2023/01/15 06:22:57;;;;;;;0.10;0.10;;;;;;;;;;4894425;29;20117;-91
2023/01/15 06:25:23;;;;;;;0.10;0.10;;;;;;;;;;4889271;29;20073;-91
2023/01/15 06:27:49;;;;;;;0.00;0.00;;;;;;;;;;4892510;29;20528;-89
2023/01/15 06:30:15;;;;;;;0.10;0.10;;;;;;;;;;4892282;29;20029;-89
2023/01/15 06:32:41;;;;;;;0.10;0.10;;;;;;;;;;4893410;29;20037;-89
2023/01/15 06:35:07;;;;;;;0.10;0.10;;;;;;;;;;4892608;29;20033;-89
2023/01/15 06:37:33;;;;;;;0.10;0.10;;;;;;;;;;4892597;29;20709;-89
2023/01/15 06:39:59;;;;;;;0.10;0.10;;;6.60;99.90;;;;;;4893160;29;20412;-89
2023/01/15 06:47:55;;;;;;;0.10;0.10;;;6.60;99.90;;;;;;4892324;29;20043;-89
2023/01/15 06:50:21;;;;;;;0.10;0.10;;;;;;;;;;4894119;29;20028;-89
2023/01/15 06:52:47;;;;;;;0.10;0.10;;;;;;;;;;4893027;29;20039;-90
2023/01/15 06:55:12;;;;;;;0.10;0.10;;;;;;;;;;4892386;29;20438;-90
2023/01/15 06:57:39;;;;;;;0.10;0.10;;;;;;;;;;4890958;29;20572;-91
2023/01/15 07:00:07;;;;;;;0.10;0.10;;;6.40;99.90;;;;;;4892841;29;20032;-91
2023/01/15 07:02:33;;;;;;;0.10;0.10;;;;;;;;;;4884230;29;20108;-88
2023/01/15 07:04:58;;;;;;;0.10;0.10;;;;;;;;;;4888862;29;20041;-89
2023/01/15 07:07:24;;;;;;;0.10;0.10;;;;;;;;;;4886642;29;20032;-89
2023/01/15 07:09:50;;;;;;;0.10;0.10;;;;;;;;;;4887054;29;20392;-89
2023/01/15 07:12:17;;;;;;;0.10;0.10;;;6.50;99.90;;;;;;4886396;29;20028;-86
2023/01/15 07:14:43;;;;;;;0.10;0.10;;;;;;;;;;4894680;29;20032;-90
2023/01/15 07:17:09;;;;;;;0.10;0.10;;;;;;;;;;4888155;29;20656;-90
2023/01/15 07:19:35;;;;;;;0.10;0.10;;;;;;;;;;4891142;29;20067;-90
2023/01/15 07:22:01;;;;;;;0.10;0.10;;;;;;;;;;4885219;29;20485;-90
2023/01/15 07:24:27;;;;;;;0.10;0.10;;;;;;;;;;4892632;29;20458;-89
2023/01/15 07:26:53;;;;;;;0.10;0.10;;;;;;;;;;4889268;29;20504;-90
2023/01/15 07:29:20;;;;;;;0.10;0.10;;;;;;;;;;4892425;29;20111;-89
2023/01/15 07:31:46;;;;;;;0.10;0.10;;;;;;;;;;4892197;29;20513;-89
2023/01/15 07:34:12;;;;;;;0.10;0.10;;;;;;;;;;4892685;29;20033;-89
2023/01/15 07:36:38;;;;;;;0.10;0.10;;;;;;;;;;4887455;29;20045;-89
2023/01/15 07:39:05;;;;;;;0.10;0.10;;;6.60;99.90;;;;;;4893931;29;20421;-88
2023/01/15 07:49:50;;;;;;;0.10;0.10;;;6.60;99.90;;;;;;4891264;29;20062;-89
2023/01/15 07:52:17;;;;;;;0.10;0.10;;;6.70;99.90;;;;;;4888125;29;20040;-89
2023/01/15 07:54:44;;;;;;;0.10;0.10;;;6.70;99.90;;;;;;4891788;29;20112;-91
2023/01/15 07:57:11;;;;;;;0.20;0.20;;;6.70;99.90;;;;;;4885250;29;20052;-89
2023/01/15 07:59:37;;;;;;;0.10;0.10;;;;;;;;;;4888192;29;20033;-90
2023/01/15 08:02:03;;;;;;;0.13;0.13;;;6.70;99.90;;;;;;4893967;29;20441;-88
2023/01/15 08:04:29;;;;;;;0.20;0.20;;;;;;;;;;4895885;29;20048;-88
2023/01/15 08:06:55;;;;;;;0.10;0.10;;;;;;;;;;4891275;29;20036;-89
2023/01/15 08:09:21;;;;;;;0.10;0.10;;;;;;;;;;4893824;29;20107;-88
2023/01/15 08:17:16;;;;;;;0.10;0.10;;;;;;;;;;4944537;23;20095;-93
2023/01/15 08:19:42;;;;;;;0.10;0.10;;;;;;;;;;4904205;29;20029;-89
2023/01/15 08:22:09;;;;;;;0.10;0.10;;;6.70;99.90;;;;;;4904963;29;20071;-91
2023/01/15 08:24:35;;;;;;;0.10;0.10;;;;;;;;;;4908196;29;20058;-89
2023/01/15 08:27:01;;;;;;;0.10;0.10;;;;;;;;;;4911202;29;20092;-89
2023/01/15 08:29:27;;;;;;;0.10;0.10;;;;;;;;;;4904530;29;20039;-91
2023/01/15 08:31:53;;;;;;;0.10;0.10;;;;;;;;;;4897416;29;20052;-89
2023/01/15 08:34:19;;;;;;;0.10;0.10;;;;;;;;;;4911199;29;20032;-90
2023/01/15 08:36:45;;;;;;;0.10;0.10;;;;;;;;;;4907367;29;20637;-91
2023/01/15 08:39:11;;;;;;;0.10;0.10;;;;;;;;;;4906814;29;20037;-90
2023/01/15 08:41:37;;;;;;;0.10;0.10;;;;;;;;;;4904795;29;20036;-89
2023/01/15 08:44:03;;;;;;;0.10;0.10;;;;;;;;;;4912266;29;20123;-92
2023/01/15 08:46:29;;;;;;;0.10;0.10;;;;;;;;;;4912247;29;20036;-92
2023/01/15 08:48:55;;;;;;;0.10;0.10;;;;;;;;;;4911008;29;20047;-91
2023/01/15 08:51:21;;;;;;;0.10;0.10;;;;;;;;;;4914600;29;20028;-90
2023/01/15 08:53:47;;;;;;;0.10;0.10;;;;;;;;;;4915506;29;20024;-91
2023/01/15 08:56:14;;;;;;;0.10;0.10;;;7.20;99.90;;;;;;4910418;29;20099;-92
2023/01/15 08:58:40;;;;;;;0.10;0.10;;;;;;;;;;4915031;29;20032;-92
2023/01/15 09:01:08;;;;;;;0.10;0.10;;;7.40;99.90;;;;;;4917948;29;20032;-91
2023/01/15 09:03:34;;;;;;;0.10;0.10;;;;;;;;;;4917280;29;20064;-91
2023/01/15 09:06:00;;;;;;;0.10;0.10;;;;;;;;;;4908528;29;20041;-91
2023/01/15 09:08:26;;;;;;;0.10;0.10;;;;;;;;;;4916337;29;20036;-90
2023/01/15 09:11:00;;;;;;;0.10;0.10;;;7.50;99.90;;;;;;4916381;29;20139;-90
2023/01/15 09:13:26;;;;;;;0.10;0.10;;;;;;;;;;4917803;29;20059;-90
2023/01/15 09:15:52;;;;;;;0.10;0.10;;;;;;;;;;4914658;29;20043;-91
2023/01/15 09:18:19;;;;;;;0.10;0.10;;;;;;;;;;4915837;29;20028;-92
2023/01/15 09:20:48;;;;;;;0.15;0.15;;;7.50;99.90;;;;;;4917277;29;20024;-92
2023/01/15 09:23:14;;;;;;;0.10;0.10;;;;;;;;;;4919335;29;20047;-92
2023/01/15 09:25:41;;;;;;;0.10;0.10;;;;;;;;;;4917450;29;20032;-93
2023/01/15 09:28:07;;;;;;;0.10;0.10;;;;;;;;;;4918460;29;20029;-92
2023/01/15 09:30:33;;;;;;;0.10;0.10;;;;;;;;;;4917328;29;20032;-90
2023/01/15 09:32:59;;;;;;;0.10;0.10;;;7.40;99.90;;;;;;4916892;29;20028;-91
2023/01/15 09:35:25;;;;;;;0.10;0.10;;;;;;;;;;4912599;29;20024;-87
2023/01/15 09:37:52;;;;;;;0.10;0.10;;;7.40;99.90;;;;;;4913422;29;20048;-91
2023/01/15 09:40:30;;;;;;;0.10;0.10;;;7.30;99.90;;;;;;4918967;29;20024;-90
2023/01/15 09:43:05;;;;;;;0.10;0.10;;;7.30;99.90;;;;;;4917750;29;20039;-92
2023/01/15 09:45:54;;;;;;;0.10;0.10;;;7.20;99.90;;;;;;4915495;29;20020;-91
2023/01/15 09:48:40;;;;;;;0.10;0.10;;;7.10;99.90;;;;;;4920386;29;20024;-90
2023/01/15 09:51:27;;;;;;;0.10;0.10;;;7.10;99.90;;;;;;4920602;29;20008;-92
2023/01/15 09:54:04;;;;;;;0.10;0.10;;;7.00;99.90;;;;;;4914701;29;20028;-92
2023/01/15 09:56:32;;;;;;;0.10;0.10;;;6.90;99.90;;;;;;4913189;29;20032;-91
2023/01/15 09:59:00;;;;;;;0.10;0.10;;;6.80;99.90;;;;;;4910869;29;20047;-90
2023/01/15 10:01:30;;;;;;;0.08;0.08;;;6.80;99.90;;;;;;4914696;29;20091;-91
2023/01/15 10:04:10;;;;;;;0.10;0.10;;;6.70;99.90;;;;;;4898954;29;20032;-89
2023/01/15 10:06:44;;;;;;;0.10;0.10;;;6.70;99.90;;;;;;4910375;29;20095;-90
2023/01/15 10:09:36;;;;;;;0.10;0.10;;;6.60;99.90;;;;;;4918644;29;20033;-92
2023/01/15 10:15:15;;;;;;;0.10;0.10;;;6.60;99.90;;;;;;4930287;29;20092;-92
2023/01/15 10:17:47;;;;;;;0.10;0.10;;;6.60;99.90;;;;;;4909336;29;20028;-91
2023/01/15 10:20:54;;;;;;;0.10;0.10;;;6.60;99.90;;;;;;4910688;29;20043;-90
2023/01/15 10:23:31;;;;;;;0.10;0.10;;;6.60;99.90;;;;;;4916213;29;20047;-92
2023/01/15 10:26:04;;;;;;;0.10;0.10;;;6.60;99.90;;;;;;4913874;29;20028;-90
2023/01/15 10:28:51;;;;;;;0.10;0.10;;;6.60;99.90;;;;;;4913707;29;20028;-91
2023/01/15 10:31:20;;;;;;;0.10;0.10;;;6.70;99.90;;;;;;4917279;29;20040;-91
2023/01/15 10:34:06;;;;;;;0.10;0.10;;;6.90;99.90;;;;;;4920475;29;20385;-91
2023/01/15 10:36:38;;;;;;;0.10;0.10;;;6.90;99.90;;;;;;4915080;29;20048;-89
2023/01/15 10:39:34;;;;;;;0.10;0.10;;;7.00;99.90;;;;;;4914976;29;20044;-91
2023/01/15 10:42:28;;;;;;;0.10;0.10;;;7.00;99.90;;;;;;4913007;29;20019;-92
2023/01/15 10:45:16;;;;;;;0.10;0.10;;;7.00;99.90;;;;;;4911132;29;20024;-92
2023/01/15 10:47:43;;;;;;;0.10;0.10;;;7.10;99.90;;;;;;4931402;29;20032;-90
2023/01/15 10:50:17;;;;;;;0.10;0.10;;;6.20;99.90;;;;;;4918315;29;20039;-93
2023/01/15 10:52:48;;;;;;;0.10;0.10;;;7.10;99.90;;;;;;4915419;29;20032;-91
2023/01/15 10:55:14;;;;;;;0.10;0.10;;;;;;;;;;4913509;29;20029;-92
2023/01/15 10:58:10;;;;;;;0.10;0.10;;;7.20;99.90;;;;;;4914604;29;20040;-93
2023/01/15 11:00:37;;;;;;;0.10;0.10;;;7.40;99.90;;;;;;4910026;29;20111;-91
2023/01/15 11:03:13;;;;;;;0.10;0.10;;;7.40;99.90;;;;;;4914798;29;20024;-91
2023/01/15 11:05:39;;;;;;;0.10;0.10;;;;;;;;;;4909060;29;20083;-90
2023/01/15 11:08:10;;;;;;;0.13;0.13;;;7.50;99.90;;;;;;4919130;29;20039;-92
2023/01/15 11:10:38;;;;;;;0.10;0.10;;;7.50;99.90;;;;;;4916966;29;20035;-91
2023/01/15 11:21:46;;;;;;;0.10;0.10;;;;;;;;;;4931079;29;20060;-92
2023/01/15 11:24:16;;;;;;;0.10;0.10;;;7.40;99.90;;;;;;4916200;29;20028;-92
2023/01/15 11:26:47;;;;;;;0.10;0.10;;;7.40;99.90;;;;;;4911386;29;20044;-92
2023/01/15 11:29:19;;;;;;;0.10;0.10;;;7.50;99.90;;;;;;4919357;29;20036;-92
2023/01/15 11:31:45;;;;;;;0.10;0.10;;;;;;;;;;4909861;29;20031;-93
2023/01/15 11:34:21;;;;;;;0.10;0.10;;;7.60;99.90;;;;;;4918241;29;20216;-92
2023/01/15 11:36:47;;;;;;;0.03;0.03;;;7.50;99.90;;;;;;4920128;29;20088;-91
2023/01/15 11:39:27;;;;;;;0.10;0.10;;;7.50;99.90;;;;;;4919008;29;20012;-91
2023/01/15 11:50:46;;;;;;;0.10;0.10;;;7.70;99.90;;;;;;4938378;29;20068;-90
2023/01/15 11:53:23;;;;;;;0.10;0.10;;;7.70;99.90;;;;;;4924036;29;20113;-92
2023/01/15 11:55:54;;;;;;;0.10;0.10;;;7.70;99.90;;;;;;4915055;29;20038;-90
2023/01/15 11:58:20;;;;;;;0.10;0.10;;;;;;;;;;4911557;29;20044;-88
2023/01/15 12:00:49;;;;;;;0.10;0.10;;;7.70;99.90;;;;;;4919476;29;20043;-91
2023/01/15 12:03:18;;;;;;;0.10;0.10;;;7.80;99.90;;;;;;4925196;29;20389;-90
2023/01/15 12:06:04;;;;;;;0.10;0.10;;;7.80;99.90;;;;;;4902648;29;20048;-89
2023/01/15 12:08:50;;;;;;;0.10;0.10;;;7.80;99.90;;;;;;4910912;29;20160;-91
2023/01/15 12:11:26;;;;;;;0.10;0.10;;;7.80;99.90;;;;;;4906408;29;20035;-90
2023/01/15 12:14:07;;;;;;;0.10;0.10;;;7.80;99.90;;;;;;4914064;29;20122;-90
2023/01/15 12:16:52;;;;;;;0.10;0.10;;;7.80;99.90;;;;;;4916442;29;20047;-90
2023/01/15 12:19:41;;;;;;;0.10;0.10;;;7.70;99.90;;;;;;4917515;29;20031;-90
2023/01/15 12:22:07;;;;;;;0.10;0.10;;;;;;;;;;4906802;29;20073;-91
2023/01/15 12:25:03;;;;;;;0.10;0.10;;;7.60;99.90;;;;;;4916320;29;20160;-90
2023/01/15 12:27:48;;;;;;;0.10;0.10;;;7.70;99.90;;;;;;4915560;29;20079;-89
2023/01/15 12:30:39;;;;;;;0.10;0.10;;;7.70;99.90;;;;;;4913935;29;20060;-90
2023/01/15 12:33:17;;;;;;;0.10;0.10;;;7.80;99.90;;;;;;4916431;29;20036;-89
2023/01/15 12:35:55;;;;;;;0.10;0.10;;;7.80;99.90;;;;;;4927339;29;20028;-89
2023/01/15 12:38:47;;;;;;;0.10;0.10;;;7.90;99.90;;;;;;4915135;29;20028;-91
2023/01/15 12:44:58;;;;;;;0.10;0.10;;;8.00;99.90;;;;;;4913374;29;20024;-88
2023/01/15 12:47:13;;;;;;;0.10;0.10;;;7.90;99.90;;;;;;4930796;29;20067;-88
2023/01/15 12:49:45;;;;;;;0.00;0.00;;;7.90;99.90;;;;;;4917633;29;20048;-90
2023/01/15 12:52:19;;;;;;;0.10;0.10;;;7.90;99.90;;;;;;4920359;29;20026;-89
2023/01/15 12:55:01;;;;;;;0.10;0.10;;;7.90;99.90;;;;;;4912132;29;20044;-89
2023/01/15 12:57:34;;;;;;;0.10;0.10;;;8.00;99.90;;;;;;4915295;29;20027;-91
2023/01/15 13:00:12;;;;;;;0.10;0.10;;;8.00;99.90;;;;;;4912694;29;20028;-90
2023/01/15 13:03:15;;;;;;;0.10;0.10;;;8.00;99.90;;;;;;4921480;29;20023;-92
2023/01/15 13:05:46;;;;;;;0.10;0.10;;;7.90;99.90;;;;;;4921835;29;20017;-90
2023/01/15 13:08:40;;;;;;;0.10;0.10;;;7.90;99.90;;;;;;4923332;29;20020;-88
2023/01/15 13:11:12;;;;;;;0.10;0.10;;;7.90;99.90;;;;;;4923964;29;20020;-89
2023/01/15 13:13:40;;;;;;;0.10;0.10;;;7.90;99.90;;;;;;4918820;29;20016;-88
2023/01/15 13:16:23;;;;;;;0.10;0.10;;;7.80;99.90;;;;;;4921711;28;20051;-89
2023/01/15 13:19:11;;;;;;;0.10;0.10;;;7.90;99.90;;;;;;4920872;29;20053;-89
2023/01/15 13:21:39;;;;;;;0.10;0.10;;;7.90;99.90;;;;;;4914672;29;20652;-92
2023/01/15 13:24:41;;;;;;;0.10;0.10;;;7.90;99.90;;;;;;4924016;29;20031;-90
2023/01/15 13:27:32;;;;;;;0.10;0.10;;;7.90;99.90;;;;;;4917686;29;20032;-91
2023/01/15 13:30:12;;;;;;;;;;;7.90;99.90;;;;;;4906115;29;20055;-89
2023/01/15 13:32:48;;;;;;;0.10;0.10;;;7.90;99.90;;;;;;4907592;29;19915;-91
2023/01/15 13:35:34;;;;;;;0.10;0.10;;;7.90;99.90;;;;;;4910802;29;20021;-91
2023/01/15 13:38:07;;;;;;;0.10;0.10;;;7.90;99.90;;;;;;4918626;29;20032;-92
2023/01/15 13:40:37;;;;;;;0.10;0.10;;;7.90;99.90;;;;;;4919834;29;20020;-92
2023/01/15 13:43:05;;;;;;;0.10;0.10;;;8.00;99.90;;;;;;4924361;29;20020;-93
2023/01/15 13:45:42;;;;;;;0.10;0.10;;;7.90;99.90;;;;;;4924243;29;20029;-91
2023/01/15 13:48:25;;;;;;;0.10;0.10;;;7.90;99.90;;;;;;4923696;29;20104;-92
2023/01/15 13:50:59;;;;;;;0.10;0.10;;;7.90;99.90;;;;;;4920144;29;20040;-90
2023/01/15 13:53:25;;;;;;;0.10;0.10;;;;;;;;;;4923175;29;20102;-90
2023/01/15 13:55:54;;;;;;;0.10;0.10;;;7.90;99.90;;;;;;4925073;29;20016;-91
2023/01/15 13:58:31;;;;;;;0.10;0.10;;;8.00;99.90;;;;;;4912585;29;21080;-89
2023/01/15 14:01:06;;;;;;;0.10;0.10;;;7.90;99.90;;;;;;4909789;29;20049;-90
2023/01/15 14:03:34;;;;;;;0.10;0.10;;;8.10;99.90;;;;;;4908757;29;20085;-92
2023/01/15 14:06:03;;;;;;;0.10;0.10;;;8.00;99.90;;;;;;4907382;29;20032;-94
2023/01/15 14:08:38;;;;;;;0.10;0.10;;;7.90;99.90;;;;;;4912260;29;20036;-90
2023/01/15 14:11:04;;;;;;;0.05;0.05;;;;;;;;;;4916304;29;20039;-89
2023/01/15 14:13:55;;;;;;;0.10;0.10;;;7.90;99.90;;;;;;4917986;29;20024;-91
2023/01/15 16:41:38;;;;;;;0.10;0.10;;;7.40;99.90;;;;;;4945214;29;20083;-90
2023/01/15 16:44:06;;;;;;;0.10;0.10;;;7.50;99.90;;;;;;4913188;29;20056;-90
2023/01/15 16:46:57;;;;;;;0.10;0.10;;;7.40;99.90;;;;;;4909586;29;20410;-90
2023/01/15 16:49:23;;;;;;;0.10;0.10;;;;;;;;;;4905393;29;20564;-91
2023/01/15 16:51:50;;;;;;;0.10;0.10;;;;;;;;;;4909680;29;20111;-89
2023/01/15 16:54:31;;;;;;;0.10;0.10;;;7.40;99.90;;;;;;4911800;29;20039;-90
2023/01/15 16:56:56;;;;;;;0.10;0.10;;;;;;;;;;4918055;29;20032;-90
2023/01/15 16:59:29;;;;;;;0.10;0.10;;;7.40;99.90;;;;;;4935180;29;20070;-91
2023/01/15 17:02:12;;;;;;;0.10;0.10;;;7.40;99.90;;;;;;4932802;29;20011;-91
2023/01/15 17:04:40;;;;;;;0.10;0.10;;;7.40;99.90;;;;;;4915853;29;20245;-91
2023/01/15 17:07:12;;;;;;;0.10;0.10;;;6.60;99.90;;;;;;4914572;29;20060;-92
2023/01/15 17:09:48;;;;;;;0.10;0.10;;;7.40;99.90;;;;;;4923562;29;20026;-90
2023/01/15 17:12:26;;;;;;;0.10;0.10;;;7.10;99.90;;;;;;4925950;29;20183;-91